• Join FlightAware (Why Join?)
  • Login
  • US Flag 
10:11PM EDT


 

Airport Tracker/Info


-or-


 

Live Flight TrackerFlight Track Log ✈ CTL13 ✈ 03-Jul-2013 ✈ KBKL - KEYE

Flight Track Log - Related Links

Times and Time Zones

All times are in EDT time to prevent confusion due to time zone crossing. See the CTL13 flight status page for this flight to view local times or setup timezone preferences in your user account.

Time Position Orientation Groundspeed Altitude Reporting Facility
EDT Latitude Longitude Course Direction KTS MPH feet Rate Location/Type
06:41PM 41.5294 -81.6731 22° Northeast 119 137 1,000  Level Cleveland Center
06:42PM 41.5736 -81.6489 22° Northeast 133 153 2,100 360 Climbing Cleveland Center
06:44PM 41.6128 -81.6747 334° Northwest 181 208 2,000 360 Descending Cleveland Center
06:44PM 41.6228 -81.7164 288° West 150 173 2,800 780 Climbing Cleveland Center
06:45PM 41.6244 -81.7719 272° West 142 163 3,500 600 Climbing Cleveland Center
06:46PM 41.6197 -81.8219 263° West 142 163 4,100 480 Climbing Cleveland Center
06:47PM 41.6128 -81.8800 261° West 144 166 4,600 480 Climbing Cleveland Center
06:48PM 41.6061 -81.9272 259° West 142 163 5,100 480 Climbing Cleveland Center
06:50PM 41.5950 -81.9881 256° West 149 171 5,600 420 Climbing Cleveland Center
06:50PM 41.5819 -82.0294 247° West 144 166 6,000 240 Climbing Cleveland Center
06:51PM 41.5625 -82.0706 238° Southwest 153 176 6,100  Climbing Cleveland Center
06:52PM 41.5389 -82.1228 239° Southwest 155 178 6,100  Level Cleveland Center
06:53PM 41.5175 -82.1750 241° Southwest 150 173 6,100 -360 Level Cleveland Center
06:54PM 41.4981 -82.2244 242° Southwest 156 180 5,400 -780 Descending Cleveland Center
06:55PM 41.4697 -82.2903 240° Southwest 181 208 4,500 -660 Descending Cleveland Center
06:56PM 41.4439 -82.3450 238° Southwest 175 201 4,100 -60 Descending Cleveland Center
06:58PM 41.4195 -82.3909 235° Southwest  Level FlightAware Approximate
07:05PM 41.2592 -82.7147 240° Southwest  Level FlightAware Approximate
07:06PM 41.2382 -82.7623 240° Southwest  Level FlightAware Approximate
07:07PM 41.2173 -82.8100 240° Southwest  Level FlightAware Approximate
07:08PM 41.1963 -82.8575 240° Southwest  Level FlightAware Approximate
07:09PM 41.1753 -82.9051 240° Southwest  Level FlightAware Approximate
07:10PM 41.1543 -82.9526 240° Southwest  Level FlightAware Approximate
07:11PM 41.1333 -83.0001 240° Southwest  Level FlightAware Approximate
07:12PM 41.1123 -83.0476 240° Southwest  Level FlightAware Approximate
07:13PM 41.0913 -83.0951 240° Southwest  Level FlightAware Approximate
07:14PM 41.0703 -83.1426 240° Southwest  Level FlightAware Approximate
07:14PM 41.0422 -83.2578 239° Southwest 161 185 4,000  Level Indianapolis Center
07:15PM 41.0493 -83.1900 240° Southwest  Level FlightAware Approximate
07:15PM 41.0192 -83.3092 239° Southwest 161 185 4,000  Level Indianapolis Center
07:16PM 41.0282 -83.2374 240° Southwest  Level FlightAware Approximate
07:17PM 41.0071 -83.2848 239° Southwest  Level FlightAware Approximate
07:17PM 40.9958 -83.3603 239° Southwest 160 184 4,000  Level Indianapolis Center
07:18PM 40.9861 -83.3321 239° Southwest  Level FlightAware Approximate
07:18PM 40.9689 -83.4194 239° Southwest 160 184 4,000  Level Indianapolis Center
07:19PM 40.9650 -83.3794 239° Southwest  Level FlightAware Approximate
07:19PM 40.9447 -83.4706 238° Southwest 161 185 4,000  Level Indianapolis Center
07:20PM 40.9438 -83.4267 239° Southwest  Level FlightAware Approximate
07:20PM 40.9206 -83.5250 240° Southwest 164 189 4,000  Level Indianapolis Center
07:21PM 40.8978 -83.5764 240° Southwest 162 186 4,000  Level Indianapolis Center
07:22PM 40.8728 -83.6264 237° Southwest 162 186 4,000  Level Indianapolis Center
07:23PM 40.8489 -83.6761 238° Southwest 160 184 4,000  Level Indianapolis Center
07:24PM 40.8253 -83.7267 238° Southwest 159 183 4,000 -60 Level Indianapolis Center
07:25PM 40.8014 -83.7783 239° Southwest 161 185 3,900  Descending Indianapolis Center
07:26PM 40.7772 -83.8281 237° Southwest 161 185 4,000  Climbing Indianapolis Center
07:27PM 40.7494 -83.8867 238° Southwest 161 185 4,000  Level Indianapolis Center
07:28PM 40.7322 -83.9414 247° West 163 188 4,000  Level Indianapolis Center
07:29PM 40.7200 -84.0022 255° West 168 193 4,000  Level Indianapolis Center
07:30PM 40.7142 -84.0636 263° West 169 194 4,000  Level Indianapolis Center
07:31PM 40.7094 -84.1247 264° West 168 193 4,000  Level Indianapolis Center
07:32PM 40.7039 -84.1925 264° West 168 193 4,000  Level Indianapolis Center
07:34PM 40.7008 -84.2774 267° West  Level FlightAware Approximate
07:39PM 40.5828 -84.5439 241° Southwest 104 120 4,000  Level Chicago Center
07:40PM 40.5611 -84.5978 242° Southwest 160 184 4,000  Level Chicago Center
07:41PM 40.5627 -84.6169 241° Southwest  Level FlightAware Approximate
07:41PM 40.5389 -84.6614 245° Southwest 160 184 4,000  Level Chicago Center
07:42PM 40.5424 -84.6653 241° Southwest  Level FlightAware Approximate
07:42PM 40.5183 -84.7128 242° Southwest 161 185 4,000  Level Chicago Center
07:43PM 40.5222 -84.7137 241° Southwest  Level FlightAware Approximate
07:43PM 40.4997 -84.7656 245° Southwest 159 183 4,000  Level Chicago Center
07:44PM 40.5019 -84.7621 241° Southwest  Level FlightAware Approximate
07:44PM 40.4794 -84.8217 245° Southwest 161 185 4,000  Level Chicago Center
07:45PM 40.4608 -84.8750 245° Southwest 163 188 4,000  Level Chicago Center
07:46PM 40.4397 -84.9317 244° Southwest 166 191 4,000  Level Chicago Center
07:47PM 40.4161 -84.9978 245° Southwest 168 193 4,000  Level Chicago Center
07:48PM 40.3969 -85.0500 244° Southwest 164 189 4,000  Level Chicago Center
07:49PM 40.3753 -85.1028 242° Southwest 164 189 4,000  Level Chicago Center
07:50PM 40.3539 -85.1536 241° Southwest 162 186 4,000  Level Chicago Center
07:51PM 40.3297 -85.2014 236° Southwest 160 184 4,000  Level Chicago Center
07:52PM 40.3078 -85.2550 242° Southwest 161 185 4,000  Level Indianapolis Center
07:53PM 40.2844 -85.3047 238° Southwest 161 185 4,000  Level Indianapolis Center
07:54PM 40.2611 -85.3553 239° Southwest 162 186 4,000  Level Indianapolis Center
07:55PM 40.2339 -85.4161 240° Southwest 161 185 4,000  Level Indianapolis Center
07:56PM 40.2111 -85.4669 240° Southwest 162 186 4,000  Level Indianapolis Center
07:57PM 40.1858 -85.5231 239° Southwest 163 188 4,000  Level Indianapolis Center
07:58PM 40.1644 -85.5747 242° Southwest 163 188 4,000  Level Indianapolis Center
07:59PM 40.1439 -85.6208 240° Southwest 163 188 4,000  Level Indianapolis Center
08:00PM 40.1203 -85.6700 238° Southwest 162 186 4,000  Level Indianapolis Center
08:01PM 40.0969 -85.7189 238° Southwest 161 185 4,000  Level Indianapolis Center
08:02PM 40.0692 -85.7794 239° Southwest 161 185 4,000  Level Indianapolis Center
08:03PM 40.0464 -85.8294 239° Southwest 161 185 4,000 -60 Level Indianapolis Center
08:05PM 40.0228 -85.8783 238° Southwest 161 185 3,900 -360 Descending Indianapolis Center
08:06PM 39.9992 -85.9289 239° Southwest 162 186 3,300 -480 Descending Indianapolis Center
08:07PM 39.9714 -85.9889 239° Southwest 164 189 3,000 -300 Descending Indianapolis Center